Time;durP1;ratioP1;P1;durP2;ratioP2;P2;SDS_P1;SDS_P2;PMS_P1;PMS_P2;Temp;Humidity;BMP_temperature;BMP_pressure;BME280_temperature;BME280_humidity;BME280_pressure;Samples;Min_cycle;Max_cycle;Signal;HPM_P1;HPM_P2
2023/04/30 00:02:09;;;;;;;10.93;9.82;;;12.40;99.90;;;;;;5011619;28;20097;-47
2023/04/30 00:04:35;;;;;;;13.63;11.05;;;12.40;99.90;;;;;;5011449;28;20563;-52
2023/04/30 00:07:01;;;;;;;12.18;10.40;;;12.40;99.90;;;;;;4993522;28;20028;-47
2023/04/30 00:09:26;;;;;;;14.45;10.48;;;12.40;99.90;;;;;;5011277;28;20021;-49
2023/04/30 00:11:52;;;;;;;12.52;11.23;;;12.40;99.90;;;;;;5011317;28;20497;-49
2023/04/30 00:14:17;;;;;;;13.55;12.02;;;12.40;99.90;;;;;;5011039;28;20104;-50
2023/04/30 00:16:43;;;;;;;12.75;11.13;;;12.40;99.90;;;;;;5011390;28;20112;-47
2023/04/30 00:19:08;;;;;;;12.52;11.07;;;12.40;99.90;;;;;;5011232;28;20026;-47
2023/04/30 00:21:35;;;;;;;13.68;11.57;;;12.40;99.90;;;;;;5010956;28;20030;-48
2023/04/30 00:24:00;;;;;;;13.65;12.10;;;12.30;99.90;;;;;;5012084;28;20109;-47
2023/04/30 00:26:26;;;;;;;16.15;11.90;;;12.40;99.90;;;;;;5014657;28;20087;-50
2023/04/30 00:28:52;;;;;;;13.27;11.43;;;12.40;99.90;;;;;;5014821;28;20034;-46
2023/04/30 00:31:17;;;;;;;13.30;11.00;;;12.40;99.90;;;;;;5014666;28;20030;-46
2023/04/30 00:33:43;;;;;;;13.60;10.80;;;12.40;99.90;;;;;;5014837;28;20100;-47
2023/04/30 00:36:08;;;;;;;15.23;10.90;;;12.40;99.90;;;;;;5014826;28;20018;-47
2023/04/30 00:38:34;;;;;;;15.90;11.45;;;12.40;99.90;;;;;;5014643;28;20025;-45
2023/04/30 00:41:00;;;;;;;16.92;11.70;;;12.40;99.90;;;;;;5014182;28;20068;-50
2023/04/30 00:43:25;;;;;;;12.95;11.60;;;12.40;99.90;;;;;;5014126;28;20493;-49
2023/04/30 00:45:51;;;;;;;16.23;12.48;;;12.40;99.90;;;;;;5014195;28;20025;-49
2023/04/30 00:48:17;;;;;;;13.60;11.50;;;12.30;99.90;;;;;;5014336;28;20038;-46
2023/04/30 00:50:43;;;;;;;13.35;11.70;;;12.40;99.90;;;;;;5014046;28;20053;-50
2023/04/30 00:53:10;;;;;;;15.35;12.25;;;12.40;99.90;;;;;;5014101;28;20054;-53
2023/04/30 00:55:37;;;;;;;18.55;11.65;;;12.30;99.90;;;;;;5013951;28;20030;-49
2023/04/30 00:58:04;;;;;;;16.83;13.57;;;12.40;99.90;;;;;;5013970;28;20025;-51
2023/04/30 01:00:30;;;;;;;13.80;11.95;;;12.30;99.90;;;;;;5013860;28;20497;-48
2023/04/30 01:02:56;;;;;;;16.30;12.07;;;12.40;99.90;;;;;;5013896;28;20051;-49
2023/04/30 01:05:21;;;;;;;14.10;11.65;;;12.30;99.90;;;;;;5013786;28;20026;-51
2023/04/30 01:07:48;;;;;;;15.68;12.32;;;12.40;99.90;;;;;;5014087;28;20496;-46
2023/04/30 01:10:15;;;;;;;15.43;12.48;;;12.40;99.90;;;;;;5013873;28;20032;-53
2023/04/30 01:13:02;;;;;;;16.00;12.70;;;12.30;99.90;;;;;;5013946;28;20157;-47
2023/04/30 01:15:49;;;;;;;14.23;12.65;;;12.40;99.90;;;;;;5013138;28;20026;-50
2023/04/30 01:18:36;;;;;;;14.98;12.25;;;12.30;99.90;;;;;;5013396;28;20026;-51
2023/04/30 01:21:04;;;;;;;13.60;11.98;;;12.30;99.90;;;;;;5013326;28;20076;-50
2023/04/30 01:24:00;;;;;;;17.80;13.02;;;12.20;99.90;;;;;;5013571;28;20048;-48
2023/04/30 01:26:45;;;;;;;15.18;13.32;;;12.30;99.90;;;;;;5013372;28;20026;-49
2023/04/30 01:29:12;;;;;;;16.85;13.23;;;12.20;99.90;;;;;;5013474;28;20108;-48
2023/04/30 01:31:38;;;;;;;22.98;14.70;;;12.20;99.90;;;;;;5013301;28;20034;-50
2023/04/30 01:34:06;;;;;;;15.95;13.65;;;12.10;99.90;;;;;;5011982;28;20544;-50
2023/04/30 01:37:00;;;;;;;16.40;13.70;;;12.10;99.90;;;;;;5012267;28;20037;-51
2023/04/30 01:39:47;;;;;;;17.70;13.93;;;12.10;99.90;;;;;;5013120;28;20022;-47
2023/04/30 01:42:20;;;;;;;18.13;14.00;;;12.10;99.90;;;;;;5013029;28;20022;-44
2023/04/30 01:45:06;;;;;;;17.85;14.82;;;12.10;99.90;;;;;;5012997;28;20022;-48
2023/04/30 01:47:47;;;;;;;20.13;15.88;;;12.10;99.90;;;;;;5013295;28;20022;-49
2023/04/30 01:50:42;;;;;;;17.48;14.52;;;12.10;99.90;;;;;;5011651;28;20026;-47
2023/04/30 01:53:19;;;;;;;15.85;13.90;;;12.10;99.90;;;;;;5012155;28;20062;-50
2023/04/30 01:55:58;;;;;;;20.50;15.48;;;12.00;99.90;;;;;;5012916;28;20245;-50
2023/04/30 01:58:24;;;;;;;19.27;14.95;;;12.00;99.90;;;;;;5012687;28;20433;-51
2023/04/30 02:00:51;;;;;;;17.67;14.68;;;12.00;99.90;;;;;;5012746;28;20018;-47
2023/04/30 02:03:16;;;;;;;19.50;15.35;;;11.90;99.90;;;;;;5012804;28;20018;-47
2023/04/30 02:05:42;;;;;;;22.92;15.05;;;11.90;99.90;;;;;;5012519;28;20452;-50
2023/04/30 02:08:07;;;;;;;18.98;14.93;;;11.90;99.90;;;;;;5012739;28;20030;-52
2023/04/30 02:10:33;;;;;;;18.85;14.85;;;11.90;99.90;;;;;;5012493;28;20117;-50
2023/04/30 02:12:58;;;;;;;19.23;14.60;;;11.90;99.90;;;;;;5012510;28;20164;-50
2023/04/30 02:15:24;;;;;;;20.17;15.57;;;12.00;99.90;;;;;;5011962;28;20033;-48
2023/04/30 02:17:50;;;;;;;17.90;14.82;;;12.00;99.90;;;;;;5012337;28;20026;-52
2023/04/30 02:20:15;;;;;;;19.38;15.57;;;12.00;99.90;;;;;;5012227;28;20025;-45
2023/04/30 02:22:41;;;;;;;21.55;16.02;;;11.90;99.90;;;;;;5012225;28;20113;-47
2023/04/30 02:25:07;;;;;;;18.63;15.77;;;11.90;99.90;;;;;;5012084;28;20057;-45
2023/04/30 02:27:33;;;;;;;19.95;16.33;;;11.90;99.90;;;;;;5012228;28;20439;-52
2023/04/30 02:29:58;;;;;;;21.50;15.75;;;11.80;99.90;;;;;;5012063;28;20113;-49
2023/04/30 02:32:24;;;;;;;21.70;16.67;;;11.80;99.90;;;;;;5010877;28;20305;-47
2023/04/30 02:34:50;;;;;;;18.48;14.82;;;11.80;99.90;;;;;;5012096;28;20026;-46
2023/04/30 02:37:15;;;;;;;19.30;16.17;;;11.80;99.90;;;;;;4994256;28;20121;-50
2023/04/30 02:39:42;;;;;;;20.75;15.95;;;11.80;99.90;;;;;;5011889;28;20034;-50
2023/04/30 02:42:07;;;;;;;21.70;17.08;;;11.70;99.90;;;;;;5012024;28;20113;-48
2023/04/30 02:44:34;;;;;;;19.17;17.17;;;11.70;99.90;;;;;;5011873;28;20545;-53
2023/04/30 02:47:00;;;;;;;21.75;16.38;;;11.70;99.90;;;;;;5011458;28;20077;-48
2023/04/30 02:49:26;;;;;;;22.48;18.20;;;11.60;99.90;;;;;;5011809;28;20056;-46
2023/04/30 02:51:52;;;;;;;25.38;17.27;;;11.60;99.90;;;;;;5011777;28;20401;-46
2023/04/30 02:54:18;;;;;;;22.02;18.05;;;11.60;99.90;;;;;;5012019;28;20121;-46
2023/04/30 02:56:44;;;;;;;23.40;18.80;;;11.60;99.90;;;;;;5011900;28;20105;-48
2023/04/30 02:59:10;;;;;;;22.83;17.83;;;11.60;99.90;;;;;;5013494;28;20026;-48
2023/04/30 03:01:35;;;;;;;24.38;19.15;;;11.50;99.90;;;;;;5013411;28;20037;-48
2023/04/30 03:04:04;;;;;;;24.23;18.70;;;11.40;99.90;;;;;;5012505;28;20393;-46
2023/04/30 03:06:30;;;;;;;26.30;18.52;;;11.40;99.90;;;;;;5012539;28;20026;-46
2023/04/30 03:08:56;;;;;;;24.85;19.08;;;11.40;99.90;;;;;;5011211;28;20100;-52
2023/04/30 03:11:22;;;;;;;24.20;19.48;;;11.40;99.90;;;;;;5012281;28;20489;-47
2023/04/30 03:13:50;;;;;;;25.02;18.20;;;11.40;99.90;;;;;;5012303;28;20227;-50
2023/04/30 03:16:17;;;;;;;25.50;19.02;;;11.40;99.90;;;;;;5011797;28;20045;-46
2023/04/30 03:18:43;;;;;;;21.85;19.25;;;11.40;99.90;;;;;;5012405;28;20069;-46
2023/04/30 03:21:09;;;;;;;27.35;18.52;;;11.30;99.90;;;;;;5012306;28;20040;-47
2023/04/30 03:23:34;;;;;;;24.83;18.83;;;11.30;99.90;;;;;;5011024;28;20116;-51
2023/04/30 03:26:00;;;;;;;24.13;18.88;;;11.30;99.90;;;;;;5012681;28;20133;-50
2023/04/30 03:28:25;;;;;;;20.88;17.60;;;11.20;99.90;;;;;;5011641;28;20410;-48
2023/04/30 03:30:51;;;;;;;25.02;19.90;;;11.20;99.90;;;;;;5011472;28;20021;-53
2023/04/30 03:33:17;;;;;;;29.58;19.35;;;11.20;99.90;;;;;;5011547;28;20037;-52
2023/04/30 03:35:42;;;;;;;24.48;18.98;;;11.20;99.90;;;;;;4993960;28;20037;-49
2023/04/30 03:38:08;;;;;;;24.27;19.35;;;11.20;99.90;;;;;;5011615;28;20382;-47
2023/04/30 03:40:33;;;;;;;24.00;18.40;;;11.20;99.90;;;;;;5011254;28;20022;-49
2023/04/30 03:42:59;;;;;;;24.08;19.17;;;11.20;99.90;;;;;;5011546;28;20022;-53
2023/04/30 03:45:24;;;;;;;24.10;18.50;;;11.20;99.90;;;;;;5011272;28;20600;-49
2023/04/30 03:47:51;;;;;;;27.55;19.45;;;11.20;99.90;;;;;;5011756;28;20030;-49
2023/04/30 03:50:17;;;;;;;28.52;19.90;;;11.10;99.90;;;;;;5011411;28;20017;-49
2023/04/30 03:52:42;;;;;;;27.85;20.23;;;11.20;99.90;;;;;;5011487;28;20030;-49
2023/04/30 03:55:09;;;;;;;24.77;19.08;;;11.20;99.90;;;;;;5011251;28;20172;-47
2023/04/30 03:57:34;;;;;;;25.73;18.25;;;11.10;99.90;;;;;;5011342;28;20075;-48
2023/04/30 04:00:00;;;;;;;23.05;19.33;;;11.10;99.90;;;;;;5013710;28;20117;-51
2023/04/30 04:02:26;;;;;;;25.67;18.92;;;11.10;99.90;;;;;;5015305;28;20183;-49
2023/04/30 04:04:52;;;;;;;25.85;18.40;;;11.00;99.90;;;;;;5015412;28;20026;-47
2023/04/30 04:07:17;;;;;;;23.33;19.55;;;11.00;99.90;;;;;;5015169;28;20261;-48
2023/04/30 04:09:43;;;;;;;25.90;18.88;;;11.00;99.90;;;;;;5015179;28;20060;-47
2023/04/30 04:12:09;;;;;;;23.88;19.48;;;11.00;99.90;;;;;;5014942;28;20033;-48
2023/04/30 04:14:34;;;;;;;26.63;19.42;;;10.90;99.90;;;;;;5014707;28;20022;-51
2023/04/30 04:17:00;;;;;;;29.50;19.77;;;10.90;99.90;;;;;;5015172;28;20073;-47
2023/04/30 04:19:26;;;;;;;27.52;20.08;;;10.90;99.90;;;;;;5015024;28;20262;-48
2023/04/30 04:21:52;;;;;;;21.73;18.58;;;10.90;99.90;;;;;;5014717;28;20037;-46
2023/04/30 04:24:18;;;;;;;24.30;19.10;;;10.90;99.90;;;;;;5015390;28;20022;-48
2023/04/30 04:26:43;;;;;;;27.27;18.42;;;10.90;99.90;;;;;;5014624;28;20387;-47
2023/04/30 04:29:09;;;;;;;21.00;18.33;;;10.90;99.90;;;;;;5014776;28;20052;-55
2023/04/30 04:31:35;;;;;;;24.15;18.48;;;10.90;99.90;;;;;;5014613;28;20121;-52
2023/04/30 04:34:03;;;;;;;26.30;20.15;;;10.90;99.90;;;;;;5014718;28;20140;-48
2023/04/30 04:36:29;;;;;;;23.45;18.52;;;10.80;99.90;;;;;;5014680;28;20053;-51
2023/04/30 04:39:01;;;;;;;24.40;18.23;;;10.80;99.90;;;;;;5014349;28;20030;-52
2023/04/30 04:41:28;;;;;;;25.10;17.58;;;10.90;99.90;;;;;;5013163;28;20141;-49
2023/04/30 04:43:53;;;;;;;22.27;18.92;;;10.80;99.90;;;;;;5014521;28;20033;-52
2023/04/30 04:46:19;;;;;;;23.52;19.02;;;10.80;99.90;;;;;;5014492;28;20018;-46
2023/04/30 04:48:45;;;;;;;24.40;18.20;;;10.80;99.90;;;;;;5014429;28;20022;-49
2023/04/30 04:51:11;;;;;;;23.05;18.27;;;10.70;99.90;;;;;;5014418;28;20105;-43
2023/04/30 04:53:37;;;;;;;24.00;17.42;;;10.80;99.90;;;;;;4996827;28;20022;-48
2023/04/30 04:56:03;;;;;;;27.38;18.05;;;10.70;99.90;;;;;;5014147;28;20026;-45
2023/04/30 04:58:28;;;;;;;22.27;17.52;;;10.80;99.90;;;;;;5014211;28;20053;-47
2023/04/30 05:00:54;;;;;;;21.23;17.20;;;10.80;99.90;;;;;;5013946;28;20077;-50
2023/04/30 05:03:19;;;;;;;24.80;18.30;;;10.80;99.90;;;;;;5014206;28;20529;-45
2023/04/30 05:05:45;;;;;;;23.10;17.38;;;10.80;99.90;;;;;;5013959;28;20026;-46
2023/04/30 05:08:11;;;;;;;27.17;17.92;;;10.90;99.90;;;;;;5014658;28;20022;-46
2023/04/30 05:10:36;;;;;;;21.83;17.13;;;10.80;99.90;;;;;;5013240;28;20065;-48
2023/04/30 05:13:02;;;;;;;22.48;16.70;;;10.80;99.90;;;;;;5013882;28;20533;-45
2023/04/30 05:15:28;;;;;;;28.45;17.30;;;10.90;99.90;;;;;;5014227;28;20036;-47
2023/04/30 05:17:53;;;;;;;25.45;18.02;;;10.90;99.90;;;;;;5014186;28;20097;-49
2023/04/30 05:20:19;;;;;;;21.13;17.40;;;10.80;99.90;;;;;;5014131;28;20105;-50
2023/04/30 05:22:44;;;;;;;21.17;17.25;;;10.90;99.90;;;;;;5014649;28;20030;-46
2023/04/30 05:25:10;;;;;;;26.88;18.08;;;10.90;99.90;;;;;;5014243;28;20029;-50
2023/04/30 05:27:36;;;;;;;21.60;16.83;;;10.90;99.90;;;;;;5014445;28;20058;-48
2023/04/30 05:30:01;;;;;;;21.92;15.90;;;10.90;99.90;;;;;;5014155;28;20033;-50
2023/04/30 05:32:27;;;;;;;21.40;16.10;;;10.90;99.90;;;;;;5014110;28;20033;-55
2023/04/30 05:34:53;;;;;;;20.77;16.85;;;10.90;99.90;;;;;;5013743;28;20033;-52
2023/04/30 05:37:19;;;;;;;22.42;17.00;;;10.90;99.90;;;;;;5014098;28;20101;-45
2023/04/30 05:39:45;;;;;;;23.67;17.00;;;11.00;99.90;;;;;;5014122;28;20029;-47
2023/04/30 05:42:10;;;;;;;23.52;16.70;;;11.10;99.90;;;;;;5014431;28;20021;-48
2023/04/30 05:44:36;;;;;;;23.98;16.55;;;11.10;99.90;;;;;;5014045;28;20030;-52
2023/04/30 05:47:02;;;;;;;24.55;15.90;;;11.10;99.90;;;;;;5013853;28;20097;-51
2023/04/30 05:49:28;;;;;;;19.80;15.90;;;11.20;99.90;;;;;;5013780;28;20029;-50
2023/04/30 05:51:54;;;;;;;19.27;15.85;;;11.20;99.90;;;;;;5013846;28;20064;-54
2023/04/30 05:54:19;;;;;;;19.67;15.15;;;11.30;99.90;;;;;;5013934;28;20054;-46
2023/04/30 05:56:45;;;;;;;24.17;15.13;;;11.40;99.90;;;;;;5013629;28;20132;-47
2023/04/30 05:59:10;;;;;;;21.00;15.60;;;11.60;99.90;;;;;;5013649;28;20022;-51
2023/04/30 06:01:36;;;;;;;21.25;14.60;;;11.90;99.90;;;;;;5013578;28;20053;-47
2023/04/30 06:04:03;;;;;;;18.40;15.07;;;12.20;99.90;;;;;;5013310;28;20026;-48
2023/04/30 06:06:30;;;;;;;19.13;13.52;;;12.40;99.90;;;;;;5013510;28;20029;-50
2023/04/30 06:08:55;;;;;;;14.60;12.23;;;13.00;99.90;;;;;;5013620;28;20022;-50
2023/04/30 06:11:21;;;;;;;14.95;11.80;;;14.00;99.90;;;;;;5012929;28;20494;-48
2023/04/30 06:13:47;;;;;;;13.93;12.38;;;14.80;99.90;;;;;;5013185;28;20406;-50
2023/04/30 06:16:13;;;;;;;19.60;11.45;;;14.90;99.90;;;;;;5012610;28;20034;-47
2023/04/30 06:18:38;;;;;;;13.52;10.77;;;15.30;99.90;;;;;;5013083;28;20034;-48
2023/04/30 06:21:04;;;;;;;12.50;10.70;;;15.40;99.90;;;;;;5012351;28;20425;-51
2023/04/30 06:23:29;;;;;;;12.98;10.95;;;15.20;99.90;;;;;;5012492;28;20481;-49
2023/04/30 06:25:55;;;;;;;13.45;10.38;;;15.20;99.90;;;;;;5013044;28;20022;-54
2023/04/30 06:28:20;;;;;;;11.70;10.50;;;15.80;99.90;;;;;;5013023;28;20022;-50
2023/04/30 06:30:46;;;;;;;11.35;10.02;;;15.90;99.90;;;;;;5012602;28;20029;-48
2023/04/30 06:33:12;;;;;;;15.27;10.73;;;16.10;99.90;;;;;;5013030;28;20440;-49
2023/04/30 06:35:37;;;;;;;13.45;10.15;;;16.50;99.90;;;;;;5012813;28;20441;-48
2023/04/30 06:38:03;;;;;;;9.77;8.77;;;16.30;99.90;;;;;;5012583;28;20026;-51
2023/04/30 06:40:28;;;;;;;13.85;8.80;;;16.80;99.90;;;;;;5012981;28;20036;-48
2023/04/30 06:42:54;;;;;;;11.80;8.35;;;17.20;99.90;;;;;;5012785;28;20025;-52
2023/04/30 06:45:22;;;;;;;11.57;9.02;;;17.70;99.90;;;;;;5012686;28;20076;-48
2023/04/30 06:47:47;;;;;;;11.27;8.18;;;17.20;99.90;;;;;;5012868;28;20075;-50
2023/04/30 06:50:14;;;;;;;11.63;7.90;;;16.90;99.90;;;;;;5012826;28;20101;-50
2023/04/30 06:52:40;;;;;;;10.15;8.23;;;16.70;99.90;;;;;;5012722;28;20090;-48
2023/04/30 06:55:05;;;;;;;11.55;7.93;;;17.30;99.90;;;;;;5012661;28;20054;-50
2023/04/30 06:57:31;;;;;;;11.82;8.18;;;18.00;99.70;;;;;;5012544;28;20393;-50
2023/04/30 06:59:57;;;;;;;9.40;7.13;;;18.20;98.40;;;;;;5012817;28;20026;-51
2023/04/30 07:02:22;;;;;;;8.18;7.40;;;18.20;98.50;;;;;;5012737;28;20020;-49
2023/04/30 07:04:48;;;;;;;9.45;7.88;;;18.10;98.20;;;;;;5011525;28;20394;-47
2023/04/30 07:07:14;;;;;;;9.48;7.07;;;17.80;98.80;;;;;;5011396;28;20113;-46
2023/04/30 07:09:40;;;;;;;7.55;6.57;;;18.30;99.00;;;;;;5011953;28;20029;-46
2023/04/30 07:12:05;;;;;;;10.82;6.82;;;19.20;97.50;;;;;;5011971;28;20026;-46
2023/04/30 07:14:31;;;;;;;7.25;6.45;;;19.40;95.90;;;;;;5011747;28;20057;-50
2023/04/30 07:16:56;;;;;;;6.57;5.90;;;19.50;95.50;;;;;;5011742;28;20022;-45
2023/04/30 07:19:22;;;;;;;13.80;6.15;;;19.30;95.30;;;;;;5012106;28;20144;-47
2023/04/30 07:21:48;;;;;;;12.50;5.43;;;19.00;95.90;;;;;;5011580;28;20033;-48
2023/04/30 07:24:13;;;;;;;7.50;5.07;;;19.50;95.70;;;;;;5012593;28;20025;-47
2023/04/30 07:26:41;;;;;;;6.88;5.00;;;20.60;95.20;;;;;;5012390;28;20026;-47
2023/04/30 07:29:06;;;;;;;8.52;6.13;;;20.60;93.90;;;;;;5011879;28;20026;-50
2023/04/30 07:31:33;;;;;;;9.75;5.80;;;20.70;93.10;;;;;;5011722;28;20520;-50
2023/04/30 07:33:58;;;;;;;7.75;4.75;;;20.80;93.40;;;;;;5014134;28;20028;-51
2023/04/30 07:36:26;;;;;;;5.70;5.10;;;21.50;92.40;;;;;;5015691;28;20030;-55
2023/04/30 07:38:51;;;;;;;7.35;4.95;;;21.90;91.00;;;;;;5030829;28;20125;-51
2023/04/30 07:41:17;;;;;;;6.88;4.82;;;21.80;91.30;;;;;;5017640;28;20112;-53
2023/04/30 07:43:42;;;;;;;5.25;4.47;;;22.10;91.00;;;;;;5027220;28;20028;-55
2023/04/30 07:46:08;;;;;;;6.65;5.05;;;22.50;89.20;;;;;;5055206;28;20412;-54
2023/04/30 07:48:33;;;;;;;6.82;4.90;;;21.60;89.20;;;;;;5055220;28;20040;-51
2023/04/30 07:50:59;;;;;;;6.43;4.82;;;21.00;90.70;;;;;;5055131;28;20025;-54
2023/04/30 07:53:24;;;;;;;6.75;4.75;;;20.10;91.50;;;;;;5042752;28;20496;-54
2023/04/30 07:55:50;;;;;;;6.07;4.95;;;19.80;91.50;;;;;;5043129;28;20028;-51
2023/04/30 07:58:15;;;;;;;7.40;5.20;;;19.50;92.40;;;;;;5035104;28;20512;-53
2023/04/30 08:00:41;;;;;;;6.38;4.90;;;19.60;92.20;;;;;;5039883;28;20579;-49
2023/04/30 08:03:07;;;;;;;5.88;5.03;;;20.20;92.60;;;;;;5054917;28;20056;-51
2023/04/30 08:05:32;;;;;;;9.30;4.50;;;21.10;91.10;;;;;;5036947;28;20507;-53
2023/04/30 08:07:58;;;;;;;5.63;4.38;;;20.80;90.40;;;;;;5055016;28;20021;-51
2023/04/30 08:10:25;;;;;;;5.47;4.03;;;20.70;90.50;;;;;;5054916;28;20025;-50
2023/04/30 08:12:51;;;;;;;6.55;3.88;;;20.70;91.00;;;;;;5053851;28;20025;-43
2023/04/30 08:15:20;;;;;;;4.65;3.55;;;20.80;90.20;;;;;;5035091;28;20112;-51
2023/04/30 08:17:47;;;;;;;5.88;4.07;;;21.20;90.60;;;;;;5034476;28;20017;-52
2023/04/30 08:20:13;;;;;;;3.50;3.20;;;21.30;88.60;;;;;;5034829;28;20021;-52
2023/04/30 08:22:38;;;;;;;5.30;3.17;;;21.10;90.10;;;;;;5034270;28;20043;-51
2023/04/30 08:25:04;;;;;;;5.03;3.53;;;21.80;89.10;;;;;;5034786;28;20108;-54
2023/04/30 08:27:31;;;;;;;3.10;2.60;;;22.20;86.40;;;;;;5034277;28;20439;-56
2023/04/30 08:29:56;;;;;;;3.40;3.10;;;22.30;85.80;;;;;;5017032;28;20120;-50
2023/04/30 08:32:22;;;;;;;6.15;3.42;;;22.20;84.70;;;;;;5032948;28;20180;-54
2023/04/30 08:34:47;;;;;;;3.85;2.97;;;21.20;85.30;;;;;;5034378;28;20086;-49
2023/04/30 08:37:13;;;;;;;3.80;2.83;;;21.00;87.30;;;;;;5034533;28;20068;-53
2023/04/30 08:39:39;;;;;;;3.55;3.00;;;21.50;85.20;;;;;;5034832;28;20460;-51
2023/04/30 08:42:08;;;;;;;3.22;2.88;;;21.20;85.80;;;;;;5034668;28;20535;-50
2023/04/30 08:44:35;;;;;;;3.72;3.10;;;20.70;86.60;;;;;;5033701;28;20026;-49
2023/04/30 08:47:02;;;;;;;4.30;3.15;;;20.10;88.40;;;;;;5016413;28;20076;-55
2023/04/30 08:49:31;;;;;;;10.60;3.15;;;19.70;89.30;;;;;;5039243;28;20035;-50
2023/04/30 08:51:59;;;;;;;11.75;3.55;;;19.70;89.80;;;;;;5053551;28;20025;-51
2023/04/30 08:54:27;;;;;;;3.28;2.90;;;19.10;90.40;;;;;;5054024;28;20446;-49
2023/04/30 08:56:52;;;;;;;3.20;2.88;;;19.20;90.80;;;;;;5053957;28;20040;-47
2023/04/30 08:59:18;;;;;;;4.93;3.38;;;18.80;91.50;;;;;;5035998;28;20032;-48
2023/04/30 09:01:44;;;;;;;6.28;3.90;;;18.50;91.90;;;;;;5053964;28;20493;-49
2023/04/30 09:04:09;;;;;;;3.22;2.35;;;18.60;91.80;;;;;;5054793;28;20033;-51
2023/04/30 09:06:35;;;;;;;6.22;3.85;;;19.10;91.70;;;;;;5036024;28;20025;-49
2023/04/30 09:09:14;;;;;;;3.60;2.95;;;19.10;90.40;;;;;;5053701;28;20057;-48
2023/04/30 09:11:40;;;;;;;2.55;2.30;;;19.20;90.80;;;;;;5035827;28;20036;-51
2023/04/30 09:14:07;;;;;;;3.20;1.98;;;19.10;89.40;;;;;;5048552;28;20034;-51
2023/04/30 09:16:48;;;;;;;2.20;2.10;;;19.40;90.20;;;;;;5032709;28;20029;-51
2023/04/30 09:19:28;;;;;;;2.25;2.00;;;18.90;89.20;;;;;;5030406;28;20481;-51
2023/04/30 09:21:54;;;;;;;1.58;1.48;;;18.80;90.30;;;;;;5033407;28;20030;-55
2023/04/30 09:24:19;;;;;;;4.18;1.50;;;19.00;88.30;;;;;;5033471;28;20018;-48
2023/04/30 09:26:49;;;;;;;1.88;1.77;;;18.60;89.90;;;;;;5033524;28;20393;-45
2023/04/30 09:29:15;;;;;;;2.60;1.90;;;18.60;89.30;;;;;;5033515;28;20034;-44
2023/04/30 09:31:50;;;;;;;1.95;1.83;;;18.80;89.70;;;;;;5032639;28;20467;-46
2023/04/30 09:34:16;;;;;;;;;;;18.70;89.40;;;;;;5033136;28;20017;-54
2023/04/30 09:36:54;;;;;;;2.75;1.75;;;18.40;89.50;;;;;;5033081;28;19905;-50
2023/04/30 09:39:20;;;;;;;2.45;1.50;;;18.70;89.90;;;;;;5032688;28;20025;-51
2023/04/30 09:41:46;;;;;;;3.35;1.50;;;18.60;89.70;;;;;;5032322;28;20018;-47
2023/04/30 09:44:31;;;;;;;2.65;1.20;;;18.60;89.30;;;;;;5032625;28;20089;-50
2023/04/30 09:46:57;;;;;;;2.95;1.60;;;18.90;89.50;;;;;;5033150;28;20562;-55
2023/04/30 09:49:24;;;;;;;2.38;1.55;;;18.90;88.80;;;;;;5032568;28;20034;-49
2023/04/30 09:51:56;;;;;;;1.90;1.60;;;18.90;88.40;;;;;;5033277;28;20037;-52
2023/04/30 09:54:29;;;;;;;1.48;1.38;;;18.80;87.50;;;;;;5017481;28;20497;-52
2023/04/30 09:56:58;;;;;;;1.42;1.33;;;18.60;88.90;;;;;;5031146;28;20017;-51
2023/04/30 09:59:34;;;;;;;7.07;1.88;;;18.50;88.30;;;;;;5031838;28;20507;-52
2023/04/30 10:02:00;;;;;;;;;;;18.50;88.10;;;;;;5033091;28;20027;-52
2023/04/30 10:04:32;;;;;;;23.23;15.90;;;18.30;88.30;;;;;;5031857;28;19913;-49
2023/04/30 10:07:00;;;;;;;35.97;26.05;;;18.40;87.80;;;;;;5013671;28;20041;-53
2023/04/30 10:09:33;;;;;;;6.18;4.68;;;18.50;88.00;;;;;;5032657;28;20024;-48
2023/04/30 10:12:00;;;;;;;1.80;1.70;;;18.50;88.50;;;;;;5032418;28;20032;-48
2023/04/30 10:14:29;;;;;;;1.60;1.10;;;18.30;87.90;;;;;;5032340;28;20033;-50
2023/04/30 10:17:10;;;;;;;1.60;1.50;;;18.40;87.90;;;;;;5032552;28;20425;-51
2023/04/30 10:19:40;;;;;;;1.35;1.23;;;18.30;87.60;;;;;;5032404;28;20077;-52
2023/04/30 10:22:07;;;;;;;1.65;1.40;;;18.30;86.20;;;;;;4996149;28;20398;-47
2023/04/30 10:24:33;;;;;;;2.78;1.38;;;18.40;87.00;;;;;;5015891;28;20013;-49
2023/04/30 10:26:59;;;;;;;2.28;1.15;;;18.40;87.60;;;;;;5032044;28;20113;-51
2023/04/30 10:29:25;;;;;;;1.10;1.10;;;18.50;88.20;;;;;;5032065;28;20065;-54
2023/04/30 10:31:51;;;;;;;1.10;1.10;;;18.30;85.70;;;;;;5031937;28;20026;-47
2023/04/30 10:34:30;;;;;;;5.60;1.38;;;18.00;86.60;;;;;;5033271;28;20068;-52
2023/04/30 10:37:06;;;;;;;2.42;1.20;;;17.80;87.70;;;;;;5031057;28;20120;-50
2023/04/30 10:39:33;;;;;;;1.30;1.10;;;17.80;88.60;;;;;;5031644;28;20026;-47
2023/04/30 10:42:03;;;;;;;3.03;2.58;;;17.90;87.80;;;;;;5031575;28;20025;-52
2023/04/30 10:44:40;;;;;;;3.47;1.30;;;18.20;88.90;;;;;;5031781;28;20021;-52
2023/04/30 10:47:06;;;;;;;3.28;1.60;;;18.30;87.10;;;;;;5031753;28;20033;-50
2023/04/30 10:49:32;;;;;;;1.55;1.10;;;18.50;88.40;;;;;;5031378;28;20036;-55
2023/04/30 10:52:00;;;;;;;1.58;1.17;;;18.60;86.20;;;;;;5031582;28;20025;-53
2023/04/30 10:54:30;;;;;;;2.17;1.42;;;18.40;85.40;;;;;;5031524;28;20022;-52
2023/04/30 10:57:13;;;;;;;1.10;1.10;;;18.30;85.70;;;;;;5031643;28;20025;-54
2023/04/30 10:59:44;;;;;;;5.47;1.23;;;18.40;87.30;;;;;;5031511;28;20481;-48
2023/04/30 11:02:09;;;;;;;0.93;0.93;;;18.40;86.60;;;;;;5031461;28;20282;-50
2023/04/30 11:05:08;;;;;;;0.88;0.88;;;18.40;86.10;;;;;;5030738;28;20460;-53
2023/04/30 11:07:33;;;;;;;4.07;2.40;;;18.70;85.60;;;;;;5029652;28;20021;-53
2023/04/30 11:10:01;;;;;;;1.20;0.75;;;18.10;84.70;;;;;;5031245;28;20102;-51
2023/04/30 11:12:27;;;;;;;1.45;0.95;;;18.10;84.60;;;;;;5030490;28;20078;-53
2023/04/30 11:15:04;;;;;;;3.65;1.00;;;18.20;86.40;;;;;;5030441;28;20033;-49
2023/04/30 11:17:32;;;;;;;3.05;1.13;;;18.20;84.80;;;;;;5030288;28;20029;-53
2023/04/30 11:20:02;;;;;;;1.08;1.08;;;18.20;85.10;;;;;;5029813;28;20053;-49
2023/04/30 11:22:35;;;;;;;0.95;0.95;;;18.20;84.40;;;;;;5029870;28;20445;-49
2023/04/30 11:25:14;;;;;;;1.20;1.08;;;18.20;84.40;;;;;;5029905;28;20117;-48
2023/04/30 11:27:44;;;;;;;1.00;1.00;;;18.30;86.30;;;;;;5029868;28;20029;-48
2023/04/30 11:30:15;;;;;;;0.82;0.80;;;18.40;84.00;;;;;;5029642;28;20435;-49
2023/04/30 11:32:45;;;;;;;1.17;1.10;;;18.30;84.50;;;;;;5024589;28;20233;-47
2023/04/30 11:35:10;;;;;;;0.75;0.75;;;18.30;82.90;;;;;;5029669;28;20026;-47
2023/04/30 11:37:38;;;;;;;1.15;0.80;;;18.40;84.90;;;;;;5029664;28;20048;-50
2023/04/30 11:40:13;;;;;;;2.42;1.30;;;18.40;84.20;;;;;;5029619;28;20022;-56
2023/04/30 11:42:43;;;;;;;2.33;0.70;;;18.50;82.20;;;;;;5030722;28;20079;-52
2023/04/30 11:45:16;;;;;;;1.85;0.85;;;18.50;82.60;;;;;;5023969;28;20057;-48
2023/04/30 11:47:44;;;;;;;0.90;0.90;;;18.50;83.80;;;;;;5029987;28;20036;-51
2023/04/30 11:50:14;;;;;;;0.98;0.98;;;18.30;82.40;;;;;;5029677;28;20021;-55
2023/04/30 11:52:40;;;;;;;0.75;0.75;;;18.20;83.70;;;;;;5012187;28;20026;-51
2023/04/30 11:55:18;;;;;;;1.27;0.77;;;18.20;83.40;;;;;;5036469;28;20501;-53
2023/04/30 11:57:48;;;;;;;0.77;0.65;;;18.40;82.40;;;;;;5029910;28;20515;-47
2023/04/30 12:00:18;;;;;;;35.67;23.77;;;18.50;82.80;;;;;;5030032;28;20033;-51
2023/04/30 12:02:47;;;;;;;10.63;7.97;;;18.70;84.80;;;;;;5029896;28;20026;-49
2023/04/30 12:05:17;;;;;;;0.88;0.88;;;18.70;82.10;;;;;;5029596;28;20105;-46
2023/04/30 12:07:56;;;;;;;0.80;0.80;;;18.70;81.70;;;;;;5029720;28;20025;-47
2023/04/30 12:10:25;;;;;;;0.85;0.80;;;18.50;83.00;;;;;;5028335;28;20048;-51
2023/04/30 12:12:53;;;;;;;0.70;0.70;;;18.40;83.20;;;;;;5029759;28;20509;-46
2023/04/30 12:15:25;;;;;;;0.80;0.80;;;18.40;82.90;;;;;;5029928;28;20029;-47
2023/04/30 12:17:52;;;;;;;1.08;0.82;;;18.60;84.80;;;;;;5030239;28;20097;-51
2023/04/30 12:20:20;;;;;;;1.48;0.80;;;18.80;84.10;;;;;;5033063;28;20048;-49
2023/04/30 12:22:46;;;;;;;4.47;0.93;;;19.00;82.60;;;;;;5032534;28;20079;-47
2023/04/30 12:25:14;;;;;;;0.98;0.80;;;18.90;81.60;;;;;;5033311;28;20049;-48
2023/04/30 12:27:44;;;;;;;0.70;0.70;;;18.90;83.80;;;;;;5033733;28;20026;-48
2023/04/30 12:30:10;;;;;;;2.90;0.63;;;19.00;84.00;;;;;;5029273;28;20078;-47
2023/04/30 12:32:43;;;;;;;1.25;0.98;;;19.10;82.40;;;;;;5034617;28;20029;-47
2023/04/30 12:35:17;;;;;;;1.00;0.90;;;19.30;82.70;;;;;;5015847;28;20094;-45
2023/04/30 12:37:51;;;;;;;1.90;0.80;;;19.40;81.00;;;;;;5016423;28;20187;-45
2023/04/30 12:40:21;;;;;;;1.42;0.77;;;19.30;80.20;;;;;;5033485;28;20108;-46